createdAt,value
2023-01-05T00:02:17.427Z,53.25
2023-01-05T00:04:51.618Z,46.07
2023-01-05T00:07:23.038Z,44.67
2023-01-05T00:09:54.455Z,49.10
2023-01-05T00:12:25.878Z,51.05
2023-01-05T00:14:57.348Z,43.53
2023-01-05T00:17:28.783Z,48.00
2023-01-05T00:20:00.246Z,49.13
2023-01-05T00:22:34.604Z,42.05
2023-01-05T00:25:12.937Z,47.07
2023-01-05T00:27:46.521Z,47.28
2023-01-05T00:30:22.261Z,48.25
2023-01-05T00:32:54.217Z,49.35
2023-01-05T00:35:25.709Z,41.10
2023-01-05T00:37:57.204Z,48.50
2023-01-05T00:40:28.675Z,50.13
2023-01-05T00:43:00.130Z,46.03
2023-01-05T00:45:31.692Z,43.60
2023-01-05T00:48:03.358Z,48.40
2023-01-05T00:50:34.776Z,49.13
2023-01-05T00:53:06.244Z,40.90
2023-01-05T00:55:37.678Z,50.90
2023-01-05T00:58:09.102Z,45.58
2023-01-05T01:00:47.378Z,43.03
2023-01-05T01:03:19.212Z,45.70
2023-01-05T01:05:57.921Z,48.65
2023-01-05T01:08:29.397Z,45.95
2023-01-05T01:11:09.048Z,51.97
2023-01-05T01:13:40.528Z,50.35
2023-01-05T01:16:14.733Z,50.55
2023-01-05T01:18:46.275Z,47.00
2023-01-05T01:21:18.410Z,45.25
2023-01-05T01:23:49.990Z,47.83
2023-01-05T01:26:21.568Z,52.90
2023-01-05T01:28:53.000Z,48.42
2023-01-05T01:31:24.598Z,45.67
2023-01-05T01:33:56.035Z,45.65
2023-01-05T01:36:27.636Z,47.97
2023-01-05T01:38:59.120Z,51.70
2023-01-05T01:41:30.660Z,43.43
2023-01-05T01:44:02.179Z,44.17
2023-01-05T01:46:33.607Z,49.27
2023-01-05T01:49:09.088Z,48.45
2023-01-05T01:51:44.911Z,44.25
2023-01-05T01:54:18.440Z,45.95
2023-01-05T01:56:54.790Z,50.17
2023-01-05T01:59:27.756Z,48.63
2023-01-05T02:02:01.442Z,38.33
2023-01-05T02:04:33.640Z,44.73
2023-01-05T02:07:09.725Z,45.13
2023-01-05T02:09:41.269Z,39.93
2023-01-05T02:12:28.781Z,45.35
2023-01-05T02:15:15.260Z,42.87
2023-01-05T02:18:19.281Z,43.85
2023-01-05T02:21:17.087Z,45.15
2023-01-05T02:23:54.898Z,38.13
2023-01-05T02:26:38.966Z,41.67
2023-01-05T02:29:32.255Z,45.33
2023-01-05T02:32:17.739Z,45.15
2023-01-05T02:35:07.124Z,40.83
2023-01-05T02:37:38.482Z,39.35
2023-01-05T02:40:15.481Z,41.88
2023-01-05T02:42:50.964Z,49.50
2023-01-05T02:45:23.863Z,45.78
2023-01-05T02:47:55.321Z,43.75
2023-01-05T02:50:31.772Z,41.63
2023-01-05T02:53:09.272Z,42.58
2023-01-05T02:55:48.921Z,44.05
2023-01-05T02:58:39.671Z,41.05
2023-01-05T03:01:28.719Z,42.63
2023-01-05T03:04:05.749Z,39.55
2023-01-05T03:07:01.886Z,37.75
2023-01-05T03:09:37.407Z,40.38
2023-01-05T03:12:20.999Z,44.30
2023-01-05T03:14:56.788Z,45.53
2023-01-05T03:17:43.272Z,46.40
2023-01-05T03:20:18.185Z,42.57
2023-01-05T03:22:52.238Z,38.08
2023-01-05T03:25:25.320Z,39.22
2023-01-05T03:27:57.225Z,40.85
2023-01-05T03:31:00.530Z,39.42
2023-01-05T03:33:43.493Z,43.00
2023-01-05T03:36:23.101Z,43.22
2023-01-05T03:38:58.490Z,44.63
2023-01-05T03:41:30.822Z,41.40
2023-01-05T03:44:02.752Z,45.78
2023-01-05T03:46:34.426Z,45.85
2023-01-05T03:49:05.855Z,39.70
2023-01-05T03:51:41.673Z,42.63
2023-01-05T03:54:13.672Z,44.10
2023-01-05T03:56:45.094Z,39.35
2023-01-05T03:59:16.555Z,43.78
2023-01-05T04:01:48.159Z,44.17
2023-01-05T04:04:19.819Z,44.15
2023-01-05T04:06:51.327Z,48.65
2023-01-05T04:09:22.792Z,43.17
2023-01-05T04:11:54.265Z,48.28
2023-01-05T04:14:25.732Z,43.70
2023-01-05T04:16:57.204Z,44.77
2023-01-05T04:19:28.656Z,42.90
2023-01-05T04:22:00.112Z,47.50
2023-01-05T04:24:31.569Z,42.50
2023-01-05T04:27:03.057Z,46.25
2023-01-05T04:29:34.613Z,46.10
2023-01-05T04:32:06.269Z,43.65
2023-01-05T04:34:37.705Z,52.70
2023-01-05T04:37:09.163Z,47.85
2023-01-05T04:39:40.640Z,47.50
2023-01-05T04:42:12.189Z,43.38
2023-01-05T04:44:43.675Z,46.75
2023-01-05T04:47:15.105Z,45.83
2023-01-05T04:49:46.494Z,48.92
2023-01-05T04:52:17.931Z,46.78
2023-01-05T04:54:49.496Z,49.90
2023-01-05T04:57:21.066Z,45.40
2023-01-05T04:59:52.506Z,50.10
2023-01-05T05:02:24.079Z,44.13
2023-01-05T05:04:55.762Z,49.53
2023-01-05T05:07:27.259Z,43.80
2023-01-05T05:09:58.704Z,48.45
2023-01-05T05:12:30.130Z,45.45
2023-01-05T05:15:01.553Z,51.63
2023-01-05T05:17:33.241Z,43.55
2023-01-05T05:20:05.359Z,48.20
2023-01-05T05:22:36.825Z,44.63
2023-01-05T05:25:08.581Z,49.73
2023-01-05T05:27:40.072Z,48.88
2023-01-05T05:30:11.880Z,46.43
2023-01-05T05:32:44.601Z,44.17
2023-01-05T05:35:16.277Z,52.13
2023-01-05T05:37:51.515Z,48.15
2023-01-05T05:40:28.723Z,46.97
2023-01-05T05:43:00.155Z,43.63
2023-01-05T05:45:31.748Z,51.13
2023-01-05T05:48:03.304Z,48.08
2023-01-05T05:50:34.749Z,47.38
2023-01-05T05:53:06.610Z,43.38
2023-01-05T05:55:38.093Z,47.83
2023-01-05T05:58:09.555Z,47.70
2023-01-05T06:00:41.407Z,43.35
2023-01-05T06:03:12.960Z,44.10
2023-01-05T06:05:44.651Z,44.87
2023-01-05T06:08:16.117Z,43.88
2023-01-05T06:10:49.157Z,49.47
2023-01-05T06:13:21.191Z,43.58
2023-01-05T06:15:52.839Z,49.78
2023-01-05T06:18:24.364Z,46.92
2023-01-05T06:21:01.309Z,43.33
2023-01-05T06:23:33.315Z,47.97
2023-01-05T06:26:05.022Z,44.20
2023-01-05T06:28:36.463Z,42.22
2023-01-05T06:31:07.999Z,42.58
2023-01-05T06:33:39.456Z,45.55
2023-01-05T06:36:10.996Z,42.28
2023-01-05T06:38:42.439Z,43.53
2023-01-05T06:41:13.935Z,46.42
2023-01-05T06:43:45.369Z,46.13
2023-01-05T06:46:16.837Z,44.08
2023-01-05T06:48:48.266Z,51.10
2023-01-05T06:51:19.817Z,45.97
2023-01-05T06:53:51.219Z,44.67
2023-01-05T06:56:22.631Z,40.60
2023-01-05T06:58:54.053Z,51.80
2023-01-05T07:01:25.633Z,50.15
2023-01-05T07:03:57.257Z,48.07
2023-01-05T07:06:28.936Z,48.20
2023-01-05T07:09:00.343Z,51.30
2023-01-05T07:11:31.808Z,50.97
2023-01-05T07:14:03.452Z,44.85
2023-01-05T07:16:34.885Z,54.13
2023-01-05T07:19:06.342Z,44.38
2023-01-05T07:21:37.824Z,49.10
2023-01-05T07:24:09.551Z,45.85
2023-01-05T07:26:41.008Z,49.03
2023-01-05T07:29:12.474Z,49.38
2023-01-05T07:31:43.960Z,45.10
2023-01-05T07:34:15.442Z,47.03
2023-01-05T07:36:46.991Z,50.42
2023-01-05T07:39:18.452Z,51.42
2023-01-05T07:41:50.001Z,50.72
2023-01-05T07:44:21.489Z,45.45
2023-01-05T07:46:52.996Z,49.33
2023-01-05T07:49:24.427Z,52.90
2023-01-05T07:51:56.067Z,44.72
2023-01-05T07:54:27.546Z,49.25
2023-01-05T07:56:58.975Z,43.75
2023-01-05T07:59:30.422Z,45.95
2023-01-05T08:02:01.932Z,47.73
2023-01-05T08:04:33.492Z,47.42
2023-01-05T08:07:06.242Z,49.00
2023-01-05T08:09:38.836Z,43.85
2023-01-05T08:12:10.264Z,47.60
2023-01-05T08:14:45.132Z,44.53
2023-01-05T08:17:16.573Z,46.50
2023-01-05T08:19:48.259Z,46.35
2023-01-05T08:22:19.711Z,45.92
2023-01-05T08:24:51.162Z,46.42
2023-01-05T08:27:22.627Z,41.70
2023-01-05T08:29:54.103Z,43.65
2023-01-05T08:32:25.560Z,41.33
2023-01-05T08:34:56.980Z,41.22
2023-01-05T08:37:28.375Z,41.10
2023-01-05T08:39:59.847Z,44.58
2023-01-05T08:42:31.311Z,40.10
2023-01-05T08:45:03.644Z,42.15
2023-01-05T08:47:35.044Z,42.72
2023-01-05T08:50:07.091Z,37.78
2023-01-05T08:52:38.735Z,42.78
2023-01-05T08:55:10.191Z,42.63
2023-01-05T08:57:41.610Z,47.13
2023-01-05T09:00:13.615Z,43.65
2023-01-05T09:02:45.234Z,43.65
2023-01-05T09:05:17.095Z,42.90
2023-01-05T09:07:48.580Z,42.67
2023-01-05T09:10:19.999Z,44.40
2023-01-05T09:12:51.476Z,46.75
2023-01-05T09:15:22.889Z,48.03
2023-01-05T09:17:54.375Z,47.55
2023-01-05T09:20:25.864Z,45.80
2023-01-05T09:22:57.340Z,43.05
2023-01-05T09:25:28.817Z,43.85
2023-01-05T09:28:00.251Z,47.42
2023-01-05T09:30:38.500Z,40.72
2023-01-05T09:33:13.519Z,47.25
2023-01-05T09:35:44.961Z,44.03
2023-01-05T09:38:16.387Z,42.70
2023-01-05T09:40:50.037Z,43.35
2023-01-05T09:43:36.538Z,44.97
2023-01-05T09:46:18.366Z,41.95
2023-01-05T09:48:57.055Z,43.80
2023-01-05T09:51:30.026Z,50.20
2023-01-05T09:54:02.483Z,48.03
2023-01-05T09:57:08.397Z,46.80
2023-01-05T09:59:42.992Z,43.67
2023-01-05T10:02:25.424Z,49.38
2023-01-05T10:04:58.256Z,48.90
2023-01-05T10:07:37.203Z,51.97
2023-01-05T10:10:44.012Z,47.40
2023-01-05T10:13:26.069Z,49.97
2023-01-05T10:15:57.589Z,45.60
2023-01-05T10:18:31.058Z,47.47
2023-01-05T10:21:11.441Z,46.58
2023-01-05T10:23:48.947Z,49.50
2023-01-05T10:26:20.319Z,48.75
2023-01-05T10:28:51.714Z,47.38
2023-01-05T10:31:30.311Z,50.45
2023-01-05T10:34:23.693Z,46.50
2023-01-05T10:37:10.163Z,51.10
2023-01-05T10:39:56.704Z,55.90
2023-01-05T10:42:43.254Z,52.38
2023-01-05T10:45:16.868Z,48.97
2023-01-05T10:47:50.080Z,55.85
2023-01-05T10:50:30.499Z,47.27
2023-01-05T10:53:09.527Z,45.53
2023-01-05T10:55:52.181Z,49.23
2023-01-05T10:58:29.526Z,50.38
2023-01-05T11:01:15.130Z,43.10
2023-01-05T11:06:40.383Z,41.27
2023-01-05T11:09:24.565Z,45.08
2023-01-05T11:12:03.126Z,38.75
2023-01-05T11:14:42.365Z,50.90
2023-01-05T11:17:19.371Z,48.60
2023-01-05T11:19:55.919Z,51.70
2023-01-05T11:22:31.330Z,43.75
2023-01-05T11:25:19.526Z,43.60
2023-01-05T11:28:09.654Z,49.33
2023-01-05T11:30:59.953Z,47.50
2023-01-05T11:33:34.699Z,51.75
2023-01-05T11:36:06.615Z,48.45
2023-01-05T11:38:38.123Z,43.38
2023-01-05T11:41:11.938Z,46.83
2023-01-05T11:43:47.247Z,46.20
2023-01-05T11:46:19.017Z,49.95
2023-01-05T11:48:55.547Z,48.25
2023-01-05T11:51:40.744Z,46.17
2023-01-05T11:54:35.371Z,47.03
2023-01-05T11:57:14.708Z,44.17
2023-01-05T11:59:46.976Z,47.63
2023-01-05T12:03:12.507Z,54.78
2023-01-05T12:05:49.775Z,49.25
2023-01-05T12:08:27.230Z,45.95
2023-01-05T12:11:18.395Z,56.20
2023-01-05T12:13:58.771Z,49.58
2023-01-05T12:16:46.843Z,49.60
2023-01-05T12:19:36.673Z,51.80
2023-01-05T12:22:50.593Z,53.88
2023-01-05T12:25:51.135Z,43.78
2023-01-05T12:29:29.398Z,51.50
2023-01-05T12:35:00.430Z,48.50
2023-01-05T12:37:57.721Z,47.63
2023-01-05T12:40:35.744Z,43.80
2023-01-05T12:43:10.715Z,39.13
2023-01-05T12:46:02.471Z,39.78
2023-01-05T12:48:46.093Z,41.58
2023-01-05T12:51:30.043Z,44.63
2023-01-05T12:54:09.490Z,37.40
2023-01-05T12:56:54.136Z,43.05
2023-01-05T12:59:36.627Z,37.40
2023-01-05T13:02:19.437Z,43.27
2023-01-05T13:04:58.779Z,42.50
2023-01-05T13:07:41.145Z,45.43
2023-01-05T13:10:20.814Z,45.35
2023-01-05T13:13:02.116Z,42.28
2023-01-05T13:15:40.735Z,41.50
2023-01-05T13:18:16.198Z,40.35
2023-01-05T13:20:57.057Z,44.33
2023-01-05T13:23:44.162Z,39.35
2023-01-05T13:26:18.656Z,44.97
2023-01-05T13:28:53.700Z,40.77
2023-01-05T13:31:25.162Z,39.13
2023-01-05T13:34:18.602Z,37.15
2023-01-05T13:37:03.713Z,36.00
2023-01-05T13:39:48.988Z,43.25
2023-01-05T13:42:35.561Z,44.50
2023-01-05T13:45:48.183Z,40.72
2023-01-05T13:49:02.852Z,38.30
2023-01-05T13:51:55.571Z,42.72
2023-01-05T13:55:07.808Z,45.72
2023-01-05T13:57:44.190Z,45.25
2023-01-05T14:00:24.636Z,50.17
2023-01-05T14:03:02.543Z,47.25
2023-01-05T14:05:45.213Z,44.30
2023-01-05T14:08:39.125Z,42.75
2023-01-05T14:11:17.869Z,43.10
2023-01-05T14:14:01.073Z,40.72
2023-01-05T14:16:35.734Z,46.58
2023-01-05T14:19:18.866Z,41.08
2023-01-05T14:21:50.300Z,43.40
2023-01-05T14:24:27.779Z,41.08
2023-01-05T14:27:18.509Z,43.97
2023-01-05T14:32:41.344Z,40.63
2023-01-05T14:35:30.706Z,43.87
2023-01-05T14:38:14.190Z,38.83
2023-01-05T14:40:54.535Z,36.10
2023-01-05T14:43:35.601Z,35.00
2023-01-05T14:46:10.522Z,32.20
2023-01-05T14:48:59.201Z,27.10
2023-01-05T14:51:35.670Z,25.05
2023-01-05T14:54:07.213Z,25.30
2023-01-05T14:56:38.765Z,26.50
2023-01-05T14:59:16.446Z,25.88
2023-01-05T15:01:50.128Z,26.92
2023-01-05T15:04:36.143Z,30.40
2023-01-05T15:10:16.077Z,28.65
2023-01-05T15:13:09.334Z,35.28
2023-01-05T15:16:05.104Z,29.10
2023-01-05T15:18:52.940Z,32.45
2023-01-05T15:22:13.507Z,31.27
2023-01-05T15:25:33.189Z,28.05
2023-01-05T15:28:31.238Z,37.00
2023-01-05T15:31:14.678Z,27.20
2023-01-05T15:33:51.994Z,27.08
2023-01-05T15:36:31.943Z,30.77
2023-01-05T15:39:21.381Z,27.20
2023-01-05T15:41:56.426Z,24.40
2023-01-05T15:44:33.343Z,22.45
2023-01-05T15:47:08.439Z,25.10
2023-01-05T15:49:40.614Z,28.73
2023-01-05T15:52:33.935Z,23.63
2023-01-05T15:55:11.318Z,30.13
2023-01-05T15:57:51.285Z,34.07
2023-01-05T16:00:29.263Z,25.30
2023-01-05T16:03:01.340Z,29.08
2023-01-05T16:05:33.943Z,26.65
2023-01-05T16:08:13.739Z,24.67
2023-01-05T16:10:58.069Z,22.40
2023-01-05T16:13:35.656Z,22.02
2023-01-05T16:16:49.739Z,15.98
2023-01-05T16:19:22.592Z,17.98
2023-01-05T16:22:03.580Z,17.88
2023-01-05T16:24:39.069Z,14.55
2023-01-05T16:27:12.754Z,13.88
2023-01-05T16:29:46.695Z,13.02
2023-01-05T16:32:27.911Z,11.20
2023-01-05T16:35:24.167Z,14.90
2023-01-05T16:38:08.902Z,14.38
2023-01-05T16:40:57.804Z,14.33
2023-01-05T16:43:45.461Z,11.65
2023-01-05T16:46:19.799Z,11.57
2023-01-05T16:49:01.770Z,12.98
2023-01-05T16:51:33.188Z,14.85
2023-01-05T16:54:20.926Z,14.73
2023-01-05T16:57:01.807Z,14.88
2023-01-05T16:59:34.942Z,18.30
2023-01-05T17:02:44.167Z,13.70
2023-01-05T17:05:19.025Z,16.45
2023-01-05T17:08:03.641Z,17.55
2023-01-05T17:10:35.068Z,13.15
2023-01-05T17:13:20.748Z,13.30
2023-01-05T17:15:53.215Z,14.52
2023-01-05T17:18:27.260Z,17.00
2023-01-05T17:21:00.255Z,13.43
2023-01-05T17:23:36.507Z,13.50
2023-01-05T17:26:12.813Z,13.23
2023-01-05T17:28:44.323Z,12.95
2023-01-05T17:31:15.848Z,15.85
2023-01-05T17:33:47.307Z,15.60
2023-01-05T17:36:28.644Z,15.50
2023-01-05T17:39:00.218Z,11.95
2023-01-05T17:41:31.880Z,13.27
2023-01-05T17:44:03.272Z,15.27
2023-01-05T17:46:38.506Z,16.40
2023-01-05T17:49:15.866Z,14.32
2023-01-05T17:51:47.750Z,17.55
2023-01-05T17:54:19.366Z,18.27
2023-01-05T17:56:50.824Z,18.77
2023-01-05T17:59:22.263Z,16.20
2023-01-05T18:01:54.945Z,17.27
2023-01-05T18:04:27.337Z,16.63
2023-01-05T18:07:00.219Z,18.20
2023-01-05T18:09:31.848Z,17.42
2023-01-05T18:12:04.056Z,18.13
2023-01-05T18:14:35.624Z,15.93
2023-01-05T18:17:07.032Z,18.20
2023-01-05T18:19:38.478Z,17.45
2023-01-05T18:22:10.434Z,16.77
2023-01-05T18:24:42.549Z,16.10
2023-01-05T18:27:14.111Z,16.80
2023-01-05T18:29:45.633Z,16.23
2023-01-05T18:32:17.780Z,15.33
2023-01-05T18:34:49.199Z,14.67
2023-01-05T18:37:21.741Z,16.20
2023-01-05T18:39:53.459Z,17.33
2023-01-05T18:42:24.863Z,20.95
2023-01-05T18:44:56.320Z,17.90
2023-01-05T18:47:27.743Z,18.23
2023-01-05T18:49:59.249Z,22.63
2023-01-05T18:52:30.670Z,20.25
2023-01-05T18:55:02.362Z,18.25
2023-01-05T18:57:34.203Z,23.15
2023-01-05T19:00:06.421Z,23.58
2023-01-05T19:02:37.821Z,22.30
2023-01-05T19:05:09.393Z,26.77
2023-01-05T19:07:40.866Z,26.92
2023-01-05T19:10:12.306Z,25.27
2023-01-05T19:12:43.766Z,28.10
2023-01-05T19:15:15.239Z,28.45
2023-01-05T19:17:48.958Z,34.05
2023-01-05T19:20:20.592Z,34.38
2023-01-05T19:22:52.103Z,38.53
2023-01-05T19:25:23.504Z,39.33
2023-01-05T19:27:54.966Z,40.95
2023-01-05T19:30:26.637Z,42.60
2023-01-05T19:32:58.072Z,41.65
2023-01-05T19:35:29.518Z,43.50
2023-01-05T19:38:01.358Z,38.85
2023-01-05T19:40:32.789Z,40.20
2023-01-05T19:43:04.224Z,42.10
2023-01-05T19:45:35.678Z,37.97
2023-01-05T19:48:07.123Z,38.67
2023-01-05T19:50:38.544Z,42.60
2023-01-05T19:53:09.965Z,40.70
2023-01-05T19:55:41.395Z,38.40
2023-01-05T19:58:12.806Z,36.03
2023-01-05T20:00:44.263Z,38.03
2023-01-05T20:03:16.019Z,41.28
2023-01-05T20:05:48.473Z,36.47
2023-01-05T20:08:19.870Z,42.67
2023-01-05T20:10:51.346Z,36.75
2023-01-05T20:13:22.795Z,36.67
2023-01-05T20:15:54.272Z,34.45
2023-01-05T20:18:25.704Z,33.93
2023-01-05T20:21:01.516Z,30.35
2023-01-05T20:23:38.814Z,27.35
2023-01-05T20:26:15.624Z,29.67
2023-01-05T20:28:47.570Z,32.17
2023-01-05T20:31:31.265Z,27.27
2023-01-05T20:34:06.639Z,24.30
2023-01-05T20:36:38.136Z,29.08
2023-01-05T20:39:11.373Z,28.08
2023-01-05T20:41:45.706Z,31.50
2023-01-05T20:44:20.810Z,26.77
2023-01-05T20:46:54.085Z,26.40
2023-01-05T20:49:25.552Z,29.50
2023-01-05T20:51:57.104Z,32.22
2023-01-05T20:54:28.557Z,28.52
2023-01-05T20:57:00.278Z,26.75
2023-01-05T20:59:33.389Z,27.25
2023-01-05T21:02:12.370Z,30.85
2023-01-05T21:04:50.439Z,30.00
2023-01-05T21:07:22.332Z,30.60
2023-01-05T21:09:54.139Z,24.85
2023-01-05T21:12:25.568Z,26.38
2023-01-05T21:14:57.012Z,21.00
2023-01-05T21:17:28.507Z,25.03
2023-01-05T21:19:59.948Z,21.17
2023-01-05T21:22:31.427Z,23.42
2023-01-05T21:25:02.843Z,19.20
2023-01-05T21:27:35.417Z,22.25
2023-01-05T21:30:07.603Z,19.77
2023-01-05T21:32:39.040Z,24.10
2023-01-05T21:35:10.477Z,16.63
2023-01-05T21:37:41.907Z,17.50
2023-01-05T21:40:13.381Z,18.83
2023-01-05T21:42:44.935Z,17.80
2023-01-05T21:45:17.989Z,15.00
2023-01-05T21:47:54.294Z,17.47
2023-01-05T21:50:26.027Z,17.23
2023-01-05T21:52:57.778Z,15.30
2023-01-05T21:55:29.988Z,16.52
2023-01-05T21:58:02.557Z,12.32
2023-01-05T22:00:34.123Z,12.45
2023-01-05T22:03:05.694Z,12.68
2023-01-05T22:05:37.131Z,14.00
2023-01-05T22:08:08.597Z,12.75
2023-01-05T22:10:40.046Z,14.50
2023-01-05T22:13:11.495Z,11.55
2023-01-05T22:15:44.540Z,11.48
2023-01-05T22:18:15.978Z,14.30
2023-01-05T22:20:47.748Z,11.57
2023-01-05T22:23:19.159Z,12.18
2023-01-05T22:26:08.980Z,13.80
2023-01-05T22:28:43.269Z,10.25
2023-01-05T22:31:20.720Z,15.77
2023-01-05T22:33:54.601Z,13.80
2023-01-05T22:36:27.918Z,16.90
2023-01-05T22:38:59.573Z,11.43
2023-01-05T22:41:31.327Z,13.23
2023-01-05T22:44:02.817Z,14.00
2023-01-05T22:46:35.050Z,14.63
2023-01-05T22:49:06.536Z,14.80
2023-01-05T22:51:38.038Z,16.00
2023-01-05T22:54:09.459Z,15.20
2023-01-05T22:56:40.924Z,15.30
2023-01-05T22:59:12.398Z,12.90
2023-01-05T23:01:44.203Z,15.50
2023-01-05T23:04:18.164Z,12.90
2023-01-05T23:06:49.605Z,10.63
2023-01-05T23:09:21.150Z,12.90
2023-01-05T23:11:52.614Z,10.73
2023-01-05T23:14:24.091Z,13.90
2023-01-05T23:16:55.580Z,14.90
2023-01-05T23:19:27.029Z,11.80
2023-01-05T23:21:58.445Z,12.30
2023-01-05T23:24:29.905Z,9.05
2023-01-05T23:27:01.384Z,12.23
2023-01-05T23:29:32.856Z,9.18
2023-01-05T23:32:04.850Z,12.75
2023-01-05T23:34:36.315Z,9.90
2023-01-05T23:37:07.797Z,10.43
2023-01-05T23:39:39.252Z,11.18
2023-01-05T23:42:10.658Z,8.27
2023-01-05T23:44:42.126Z,7.33
2023-01-05T23:47:13.599Z,6.32
2023-01-05T23:49:45.043Z,7.80
2023-01-05T23:52:16.552Z,8.45
2023-01-05T23:54:48.073Z,5.93
2023-01-05T23:57:19.526Z,8.88
2023-01-05T23:59:51.006Z,7.05
